sensor_id;sensor_type;location;lat;lon;timestamp;pressure;altitude;pressure_sealevel;temperature
64394;BMP280;50712;49.506;10.400;2023-07-20T00:00:07;97805.13;;;23.22
64394;BMP280;50712;49.506;10.400;2023-07-20T00:00:43;97807.38;;;23.24
64394;BMP280;50712;49.506;10.400;2023-07-20T00:01:13;97804.59;;;23.24
64394;BMP280;50712;49.506;10.400;2023-07-20T00:01:44;97812.19;;;23.23
64394;BMP280;50712;49.506;10.400;2023-07-20T00:02:15;97804.59;;;23.24
64394;BMP280;50712;49.506;10.400;2023-07-20T00:02:45;97811.66;;;23.25
64394;BMP280;50712;49.506;10.400;2023-07-20T00:03:16;97810.16;;;23.24
64394;BMP280;50712;49.506;10.400;2023-07-20T00:03:46;97816.47;;;23.24
64394;BMP280;50712;49.506;10.400;2023-07-20T00:04:24;97813.47;;;23.22
64394;BMP280;50712;49.506;10.400;2023-07-20T00:04:55;97812.94;;;23.24
64394;BMP280;50712;49.506;10.400;2023-07-20T00:05:25;97814.22;;;23.23
64394;BMP280;50712;49.506;10.400;2023-07-20T00:05:55;97809.97;;;23.22
64394;BMP280;50712;49.506;10.400;2023-07-20T00:06:26;97813.47;;;23.22
64394;BMP280;50712;49.506;10.400;2023-07-20T00:06:57;97805.69;;;23.21
64394;BMP280;50712;49.506;10.400;2023-07-20T00:07:28;97814.78;;;23.21
64394;BMP280;50712;49.506;10.400;2023-07-20T00:07:58;97814.03;;;23.21
64394;BMP280;50712;49.506;10.400;2023-07-20T00:08:29;97807.72;;;23.20
64394;BMP280;50712;49.506;10.400;2023-07-20T00:08:59;97810.50;;;23.20
64394;BMP280;50712;49.506;10.400;2023-07-20T00:09:30;97810.50;;;23.20
64394;BMP280;50712;49.506;10.400;2023-07-20T00:10:00;97814.56;;;23.19
64394;BMP280;50712;49.506;10.400;2023-07-20T00:10:30;97812.53;;;23.20
64394;BMP280;50712;49.506;10.400;2023-07-20T00:11:00;97816.59;;;23.19
64394;BMP280;50712;49.506;10.400;2023-07-20T00:11:31;97811.03;;;23.19
64394;BMP280;50712;49.506;10.400;2023-07-20T00:12:01;97810.31;;;23.18
64394;BMP280;50712;49.506;10.400;2023-07-20T00:12:32;97815.09;;;23.18
64394;BMP280;50712;49.506;10.400;2023-07-20T00:13:02;97813.09;;;23.18
64394;BMP280;50712;49.506;10.400;2023-07-20T00:13:33;97808.78;;;23.17
64394;BMP280;50712;49.506;10.400;2023-07-20T00:14:03;97807.31;;;23.16
64394;BMP280;50712;49.506;10.400;2023-07-20T00:14:34;97813.59;;;23.17
64394;BMP280;50712;49.506;10.400;2023-07-20T00:15:05;97808.59;;;23.15
64394;BMP280;50712;49.506;10.400;2023-07-20T00:15:35;97807.81;;;23.15
64394;BMP280;50712;49.506;10.400;2023-07-20T00:16:06;97816.16;;;23.15
64394;BMP280;50712;49.506;10.400;2023-07-20T00:16:36;97816.16;;;23.15
64394;BMP280;50712;49.506;10.400;2023-07-20T00:17:06;97821.00;;;23.14
64394;BMP280;50712;49.506;10.400;2023-07-20T00:17:37;97818.00;;;23.12
64394;BMP280;50712;49.506;10.400;2023-07-20T00:18:10;97819.50;;;23.13
64394;BMP280;50712;49.506;10.400;2023-07-20T00:18:40;97829.13;;;23.12
64394;BMP280;50712;49.506;10.400;2023-07-20T00:19:10;97810.22;;;23.11
64394;BMP280;50712;49.506;10.400;2023-07-20T00:19:40;97809.50;;;23.10
64394;BMP280;50712;49.506;10.400;2023-07-20T00:20:11;97813.53;;;23.09
64394;BMP280;50712;49.506;10.400;2023-07-20T00:20:41;97805.72;;;23.08
64394;BMP280;50712;49.506;10.400;2023-07-20T00:21:11;97801.47;;;23.07
64394;BMP280;50712;49.506;10.400;2023-07-20T00:21:42;97799.97;;;23.06
64394;BMP280;50712;49.506;10.400;2023-07-20T00:22:12;97796.97;;;23.03
64394;BMP280;50712;49.506;10.400;2023-07-20T00:22:43;97796.97;;;23.03
64394;BMP280;50712;49.506;10.400;2023-07-20T00:23:13;97803.84;;;23.02
64394;BMP280;50712;49.506;10.400;2023-07-20T00:23:44;97791.19;;;23.01
64394;BMP280;50712;49.506;10.400;2023-07-20T00:24:14;97793.22;;;23.01
64394;BMP280;50712;49.506;10.400;2023-07-20T00:24:45;97800.28;;;23.02
64394;BMP280;50712;49.506;10.400;2023-07-20T00:25:15;97792.50;;;23.00
64394;BMP280;50712;49.506;10.400;2023-07-20T00:25:46;97801.56;;;23.01
64394;BMP280;50712;49.506;10.400;2023-07-20T00:26:17;97796.00;;;23.01
64394;BMP280;50712;49.506;10.400;2023-07-20T00:26:47;97798.78;;;23.01
64394;BMP280;50712;49.506;10.400;2023-07-20T00:27:18;97801.56;;;23.01
64394;BMP280;50712;49.506;10.400;2023-07-20T00:27:49;97793.97;;;23.01
64394;BMP280;50712;49.506;10.400;2023-07-20T00:28:19;97790.44;;;23.01
64394;BMP280;50712;49.506;10.400;2023-07-20T00:28:52;97796.00;;;23.01
64394;BMP280;50712;49.506;10.400;2023-07-20T00:29:23;97793.22;;;23.01
64394;BMP280;50712;49.506;10.400;2023-07-20T00:29:53;97792.50;;;23.00
64394;BMP280;50712;49.506;10.400;2023-07-20T00:30:24;97795.28;;;23.00
64394;BMP280;50712;49.506;10.400;2023-07-20T00:30:54;97799.34;;;22.99
64394;BMP280;50712;49.506;10.400;2023-07-20T00:31:24;97793.81;;;22.99
64394;BMP280;50712;49.506;10.400;2023-07-20T00:31:55;97801.38;;;22.99
64394;BMP280;50712;49.506;10.400;2023-07-20T00:32:27;97795.06;;;22.98
64394;BMP280;50712;49.506;10.400;2023-07-20T00:32:57;97801.38;;;22.99
64394;BMP280;50712;49.506;10.400;2023-07-20T00:33:28;97799.13;;;22.97
64394;BMP280;50712;49.506;10.400;2023-07-20T00:33:58;97797.09;;;22.98
64394;BMP280;50712;49.506;10.400;2023-07-20T00:34:28;97798.38;;;22.97
64394;BMP280;50712;49.506;10.400;2023-07-20T00:34:59;97800.41;;;22.96
64394;BMP280;50712;49.506;10.400;2023-07-20T00:35:29;97797.63;;;22.96
64394;BMP280;50712;49.506;10.400;2023-07-20T00:35:59;97798.38;;;22.97
64394;BMP280;50712;49.506;10.400;2023-07-20T00:36:30;97797.41;;;22.94
64394;BMP280;50712;49.506;10.400;2023-07-20T00:37:00;97797.41;;;22.94
64394;BMP280;50712;49.506;10.400;2023-07-20T00:37:31;97798.19;;;22.95
64394;BMP280;50712;49.506;10.400;2023-07-20T00:38:03;97805.03;;;22.94
64394;BMP280;50712;49.506;10.400;2023-07-20T00:38:34;97799.47;;;22.94
64394;BMP280;50712;49.506;10.400;2023-07-20T00:39:04;97797.97;;;22.93
64394;BMP280;50712;49.506;10.400;2023-07-20T00:39:35;97799.97;;;22.92
64394;BMP280;50712;49.506;10.400;2023-07-20T00:40:05;97809.06;;;22.93
64394;BMP280;50712;49.506;10.400;2023-07-20T00:40:38;97799.97;;;22.92
64394;BMP280;50712;49.506;10.400;2023-07-20T00:41:09;97797.22;;;22.92
64394;BMP280;50712;49.506;10.400;2023-07-20T00:41:39;97806.13;;;22.91
64394;BMP280;50712;49.506;10.400;2023-07-20T00:42:09;97797.78;;;22.91
64394;BMP280;50712;49.506;10.400;2023-07-20T00:42:40;97806.84;;;22.91
64394;BMP280;50712;49.506;10.400;2023-07-20T00:43:11;97803.34;;;22.91
64394;BMP280;50712;49.506;10.400;2023-07-20T00:43:42;97802.59;;;22.90
64394;BMP280;50712;49.506;10.400;2023-07-20T00:44:12;97805.88;;;22.89
64394;BMP280;50712;49.506;10.400;2023-07-20T00:44:42;97807.38;;;22.90
64394;BMP280;50712;49.506;10.400;2023-07-20T00:45:13;97800.31;;;22.89
64394;BMP280;50712;49.506;10.400;2023-07-20T00:45:43;97808.66;;;22.89
64394;BMP280;50712;49.506;10.400;2023-07-20T00:46:14;97805.16;;;22.88
64394;BMP280;50712;49.506;10.400;2023-07-20T00:46:45;97806.44;;;22.87
64394;BMP280;50712;49.506;10.400;2023-07-20T00:47:16;97812.00;;;22.87
64394;BMP280;50712;49.506;10.400;2023-07-20T00:47:46;97811.25;;;22.87
64394;BMP280;50712;49.506;10.400;2023-07-20T00:48:18;97810.50;;;22.86
64394;BMP280;50712;49.506;10.400;2023-07-20T00:48:48;97814.53;;;22.85
64394;BMP280;50712;49.506;10.400;2023-07-20T00:49:18;97816.59;;;22.85
64394;BMP280;50712;49.506;10.400;2023-07-20T00:49:51;97811.56;;;22.83
64394;BMP280;50712;49.506;10.400;2023-07-20T00:50:22;97806.53;;;22.82
64394;BMP280;50712;49.506;10.400;2023-07-20T00:50:56;97814.13;;;22.81
64394;BMP280;50712;49.506;10.400;2023-07-20T00:51:28;97811.91;;;22.80
64394;BMP280;50712;49.506;10.400;2023-07-20T00:51:59;97816.19;;;22.81
64394;BMP280;50712;49.506;10.400;2023-07-20T00:52:31;97808.38;;;22.79
64394;BMP280;50712;49.506;10.400;2023-07-20T00:53:02;97813.16;;;22.79
64394;BMP280;50712;49.506;10.400;2023-07-20T00:53:36;97816.69;;;22.79
64394;BMP280;50712;49.506;10.400;2023-07-20T00:54:14;97815.19;;;22.78
64394;BMP280;50712;49.506;10.400;2023-07-20T00:54:47;97816.50;;;22.77
64394;BMP280;50712;49.506;10.400;2023-07-20T00:55:19;97807.41;;;22.77
64394;BMP280;50712;49.506;10.400;2023-07-20T00:55:52;97812.22;;;22.76
64394;BMP280;50712;49.506;10.400;2023-07-20T00:56:22;97806.66;;;22.76
64394;BMP280;50712;49.506;10.400;2023-07-20T00:56:53;97810.19;;;22.77
64394;BMP280;50712;49.506;10.400;2023-07-20T00:57:24;97813.50;;;22.75
64394;BMP280;50712;49.506;10.400;2023-07-20T00:57:56;97809.22;;;22.74
64394;BMP280;50712;49.506;10.400;2023-07-20T00:58:26;97809.22;;;22.74
64394;BMP280;50712;49.506;10.400;2023-07-20T00:58:58;97812.75;;;22.75
64394;BMP280;50712;49.506;10.400;2023-07-20T00:59:32;97803.66;;;22.74
64394;BMP280;50712;49.506;10.400;2023-07-20T01:00:02;97805.69;;;22.74
64394;BMP280;50712;49.506;10.400;2023-07-20T01:00:33;97802.72;;;22.72
64394;BMP280;50712;49.506;10.400;2023-07-20T01:01:03;97809.78;;;22.73
64394;BMP280;50712;49.506;10.400;2023-07-20T01:01:34;97802.72;;;22.72
64394;BMP280;50712;49.506;10.400;2023-07-20T01:02:04;97799.94;;;22.72
64394;BMP280;50712;49.506;10.400;2023-07-20T01:02:34;97792.13;;;22.70
64394;BMP280;50712;49.506;10.400;2023-07-20T01:03:05;97804.00;;;22.71
64394;BMP280;50712;49.506;10.400;2023-07-20T01:03:35;97805.28;;;22.70
64394;BMP280;50712;49.506;10.400;2023-07-20T01:04:05;97806.56;;;22.69
64394;BMP280;50712;49.506;10.400;2023-07-20T01:04:36;97803.78;;;22.69
64394;BMP280;50712;49.506;10.400;2023-07-20T01:05:07;97807.31;;;22.69
64394;BMP280;50712;49.506;10.400;2023-07-20T01:05:53;97810.84;;;22.70
64394;BMP280;50712;49.506;10.400;2023-07-20T01:06:34;97804.53;;;22.69
64394;BMP280;50712;49.506;10.400;2023-07-20T01:07:17;97811.38;;;22.68
64394;BMP280;50712;49.506;10.400;2023-07-20T01:08:07;97811.38;;;22.68
64394;BMP280;50712;49.506;10.400;2023-07-20T01:08:56;97813.41;;;22.68
64394;BMP280;50712;49.506;10.400;2023-07-20T01:10:05;97807.63;;;22.66
64394;BMP280;50712;49.506;10.400;2023-07-20T01:10:54;97810.19;;;22.64
64394;BMP280;50712;49.506;10.400;2023-07-20T01:12:42;97810.53;;;22.60
64394;BMP280;50712;49.506;10.400;2023-07-20T01:13:16;97805.53;;;22.59
64394;BMP280;50712;49.506;10.400;2023-07-20T01:13:48;97809.78;;;22.60
64394;BMP280;50712;49.506;10.400;2023-07-20T01:14:20;97808.31;;;22.59
64394;BMP280;50712;49.506;10.400;2023-07-20T01:14:52;97810.34;;;22.58
64394;BMP280;50712;49.506;10.400;2023-07-20T01:15:22;97811.09;;;22.59
64394;BMP280;50712;49.506;10.400;2023-07-20T01:15:56;97818.66;;;22.58
64394;BMP280;50712;49.506;10.400;2023-07-20T01:16:30;97811.59;;;22.57
64394;BMP280;50712;49.506;10.400;2023-07-20T01:17:01;97806.03;;;22.57
64394;BMP280;50712;49.506;10.400;2023-07-20T01:17:32;97816.41;;;22.57
64394;BMP280;50712;49.506;10.400;2023-07-20T01:18:02;97804.53;;;22.56
64394;BMP280;50712;49.506;10.400;2023-07-20T01:18:34;97815.66;;;22.56
64394;BMP280;50712;49.506;10.400;2023-07-20T01:19:04;97810.09;;;22.56
64394;BMP280;50712;49.506;10.400;2023-07-20T01:19:36;97810.09;;;22.56
64394;BMP280;50712;49.506;10.400;2023-07-20T01:20:06;97817.69;;;22.56
64394;BMP280;50712;49.506;10.400;2023-07-20T01:20:40;97821.19;;;22.56
64394;BMP280;50712;49.506;10.400;2023-07-20T01:21:12;97816.94;;;22.55
64394;BMP280;50712;49.506;10.400;2023-07-20T01:22:08;97814.16;;;22.55
64394;BMP280;50712;49.506;10.400;2023-07-20T01:22:58;97810.44;;;22.53
64394;BMP280;50712;49.506;10.400;2023-07-20T01:24:44;97816.00;;;22.53
64394;BMP280;50712;49.506;10.400;2023-07-20T01:26:27;97822.09;;;22.51
64394;BMP280;50712;49.506;10.400;2023-07-20T01:29:17;97815.78;;;22.51
64394;BMP280;50712;49.506;10.400;2023-07-20T01:31:57;97809.78;;;22.47
64394;BMP280;50712;49.506;10.400;2023-07-20T01:32:28;97812.56;;;22.47
64394;BMP280;50712;49.506;10.400;2023-07-20T01:33:00;97814.63;;;22.46
64394;BMP280;50712;49.506;10.400;2023-07-20T01:33:32;97813.09;;;22.45
64394;BMP280;50712;49.506;10.400;2023-07-20T01:34:04;97806.03;;;22.44
64394;BMP280;50712;49.506;10.400;2023-07-20T01:34:38;97802.53;;;22.44
64394;BMP280;50712;49.506;10.400;2023-07-20T01:35:10;97815.69;;;22.43
64394;BMP280;50712;49.506;10.400;2023-07-20T01:35:44;97816.97;;;22.42
64394;BMP280;50712;49.506;10.400;2023-07-20T01:36:18;97814.19;;;22.42
64394;BMP280;50712;49.506;10.400;2023-07-20T01:36:50;97812.16;;;22.43
64394;BMP280;50712;49.506;10.400;2023-07-20T01:37:22;97814.94;;;22.43
64394;BMP280;50712;49.506;10.400;2023-07-20T01:37:57;97814.19;;;22.42
64394;BMP280;50712;49.506;10.400;2023-07-20T01:38:29;97814.94;;;22.43
64394;BMP280;50712;49.506;10.400;2023-07-20T01:39:00;97816.97;;;22.42
64394;BMP280;50712;49.506;10.400;2023-07-20T01:39:31;97816.19;;;22.42
64394;BMP280;50712;49.506;10.400;2023-07-20T01:40:02;97812.66;;;22.41
64394;BMP280;50712;49.506;10.400;2023-07-20T01:40:33;97821.75;;;22.42
64394;BMP280;50712;49.506;10.400;2023-07-20T01:41:04;97821.00;;;22.41
64394;BMP280;50712;49.506;10.400;2023-07-20T01:41:35;97823.78;;;22.41
64394;BMP280;50712;49.506;10.400;2023-07-20T01:42:06;97823.78;;;22.41
64394;BMP280;50712;49.506;10.400;2023-07-20T01:42:36;97830.59;;;22.40
64394;BMP280;50712;49.506;10.400;2023-07-20T01:43:07;97821.56;;;22.40
64394;BMP280;50712;49.506;10.400;2023-07-20T01:43:37;97825.78;;;22.41
64394;BMP280;50712;49.506;10.400;2023-07-20T01:44:09;97831.16;;;22.39
64394;BMP280;50712;49.506;10.400;2023-07-20T01:44:39;97831.16;;;22.39
64394;BMP280;50712;49.506;10.400;2023-07-20T01:45:09;97822.06;;;22.38
64394;BMP280;50712;49.506;10.400;2023-07-20T01:45:40;97824.09;;;22.38
64394;BMP280;50712;49.506;10.400;2023-07-20T01:46:10;97831.16;;;22.39
64394;BMP280;50712;49.506;10.400;2023-07-20T01:46:40;97826.13;;;22.37
64394;BMP280;50712;49.506;10.400;2023-07-20T01:47:11;97828.91;;;22.37
64394;BMP280;50712;49.506;10.400;2023-07-20T01:47:41;97826.13;;;22.37
64394;BMP280;50712;49.506;10.400;2023-07-20T01:48:12;97833.72;;;22.37
64394;BMP280;50712;49.506;10.400;2023-07-20T01:48:43;97823.91;;;22.36
64394;BMP280;50712;49.506;10.400;2023-07-20T01:49:13;97825.38;;;22.37
64394;BMP280;50712;49.506;10.400;2023-07-20T01:49:43;97826.13;;;22.37
64394;BMP280;50712;49.506;10.400;2023-07-20T01:50:14;97826.69;;;22.36
64394;BMP280;50712;49.506;10.400;2023-07-20T01:50:44;97826.69;;;22.36
64394;BMP280;50712;49.506;10.400;2023-07-20T01:51:15;97828.69;;;22.35
64394;BMP280;50712;49.506;10.400;2023-07-20T01:51:47;97820.38;;;22.35
64394;BMP280;50712;49.506;10.400;2023-07-20T01:52:18;97826.69;;;22.36
64394;BMP280;50712;49.506;10.400;2023-07-20T01:52:48;97825.16;;;22.35
64394;BMP280;50712;49.506;10.400;2023-07-20T01:53:19;97825.16;;;22.35
64394;BMP280;50712;49.506;10.400;2023-07-20T01:53:52;97827.94;;;22.35
64394;BMP280;50712;49.506;10.400;2023-07-20T01:54:22;97827.94;;;22.35
64394;BMP280;50712;49.506;10.400;2023-07-20T01:54:52;97825.72;;;22.33
64394;BMP280;50712;49.506;10.400;2023-07-20T01:55:23;97827.72;;;22.33
64394;BMP280;50712;49.506;10.400;2023-07-20T01:55:53;97820.16;;;22.33
64394;BMP280;50712;49.506;10.400;2023-07-20T01:56:27;97820.69;;;22.32
64394;BMP280;50712;49.506;10.400;2023-07-20T01:56:57;97827.00;;;22.32
64394;BMP280;50712;49.506;10.400;2023-07-20T01:57:27;97828.25;;;22.31
64394;BMP280;50712;49.506;10.400;2023-07-20T01:57:58;97825.50;;;22.31
64394;BMP280;50712;49.506;10.400;2023-07-20T01:58:30;97825.28;;;22.29
64394;BMP280;50712;49.506;10.400;2023-07-20T01:59:00;97822.50;;;22.29
64394;BMP280;50712;49.506;10.400;2023-07-20T01:59:30;97824.53;;;22.29
64394;BMP280;50712;49.506;10.400;2023-07-20T02:00:01;97824.53;;;22.29
64394;BMP280;50712;49.506;10.400;2023-07-20T02:00:31;97827.31;;;22.29
64394;BMP280;50712;49.506;10.400;2023-07-20T02:01:02;97828.59;;;22.28
64394;BMP280;50712;49.506;10.400;2023-07-20T02:01:33;97828.59;;;22.28
64394;BMP280;50712;49.506;10.400;2023-07-20T02:02:03;97825.81;;;22.28
64394;BMP280;50712;49.506;10.400;2023-07-20T02:02:34;97827.09;;;22.27
64394;BMP280;50712;49.506;10.400;2023-07-20T02:03:04;97829.88;;;22.27
64394;BMP280;50712;49.506;10.400;2023-07-20T02:03:35;97832.66;;;22.27
64394;BMP280;50712;49.506;10.400;2023-07-20T02:04:05;97826.34;;;22.26
64394;BMP280;50712;49.506;10.400;2023-07-20T02:04:36;97829.66;;;22.25
64394;BMP280;50712;49.506;10.400;2023-07-20T02:05:06;97831.69;;;22.24
64394;BMP280;50712;49.506;10.400;2023-07-20T02:05:37;97830.19;;;22.23
64394;BMP280;50712;49.506;10.400;2023-07-20T02:06:08;97827.41;;;22.23
64394;BMP280;50712;49.506;10.400;2023-07-20T02:06:38;97831.47;;;22.22
64394;BMP280;50712;49.506;10.400;2023-07-20T02:07:08;97836.25;;;22.22
64394;BMP280;50712;49.506;10.400;2023-07-20T02:07:39;97835.53;;;22.21
64394;BMP280;50712;49.506;10.400;2023-07-20T02:08:09;97829.25;;;22.21
64394;BMP280;50712;49.506;10.400;2023-07-20T02:08:39;97836.06;;;22.20
64394;BMP280;50712;49.506;10.400;2023-07-20T02:09:10;97838.06;;;22.19
64394;BMP280;50712;49.506;10.400;2023-07-20T02:09:40;97840.84;;;22.19
64394;BMP280;50712;49.506;10.400;2023-07-20T02:10:11;97837.31;;;22.19
64394;BMP280;50712;49.506;10.400;2023-07-20T02:10:42;97837.13;;;22.17
64394;BMP280;50712;49.506;10.400;2023-07-20T02:11:15;97834.34;;;22.17
64394;BMP280;50712;49.506;10.400;2023-07-20T02:11:45;97840.63;;;22.17
64394;BMP280;50712;49.506;10.400;2023-07-20T02:12:16;97838.41;;;22.16
64394;BMP280;50712;49.506;10.400;2023-07-20T02:12:46;97840.41;;;22.15
64394;BMP280;50712;49.506;10.400;2023-07-20T02:13:17;97839.47;;;22.13
64394;BMP280;50712;49.506;10.400;2023-07-20T02:13:48;97838.19;;;22.14
64394;BMP280;50712;49.506;10.400;2023-07-20T02:14:19;97841.47;;;22.12
64394;BMP280;50712;49.506;10.400;2023-07-20T02:14:49;97840.75;;;22.12
64394;BMP280;50712;49.506;10.400;2023-07-20T02:15:21;97842.03;;;22.11
64394;BMP280;50712;49.506;10.400;2023-07-20T02:15:52;97836.25;;;22.09
64394;BMP280;50712;49.506;10.400;2023-07-20T02:16:22;97832.75;;;22.08
64394;BMP280;50712;49.506;10.400;2023-07-20T02:16:52;97835.53;;;22.08
64394;BMP280;50712;49.506;10.400;2023-07-20T02:17:30;97836.78;;;22.07
64394;BMP280;50712;49.506;10.400;2023-07-20T02:18:00;97833.81;;;22.05
64394;BMP280;50712;49.506;10.400;2023-07-20T02:18:31;97841.38;;;22.05
64394;BMP280;50712;49.506;10.400;2023-07-20T02:19:01;97844.91;;;22.05
64394;BMP280;50712;49.506;10.400;2023-07-20T02:19:32;97845.41;;;22.04
64394;BMP280;50712;49.506;10.400;2023-07-20T02:20:02;97846.69;;;22.03
64394;BMP280;50712;49.506;10.400;2023-07-20T02:20:33;97845.97;;;22.02
64394;BMP280;50712;49.506;10.400;2023-07-20T02:21:03;97841.69;;;22.01
64394;BMP280;50712;49.506;10.400;2023-07-20T02:21:34;97846.50;;;22.01
64394;BMP280;50712;49.506;10.400;2023-07-20T02:22:04;97845.72;;;22.00
64394;BMP280;50712;49.506;10.400;2023-07-20T02:22:35;97842.19;;;22.00
64394;BMP280;50712;49.506;10.400;2023-07-20T02:23:07;97844.22;;;21.99
64394;BMP280;50712;49.506;10.400;2023-07-20T02:23:37;97851.59;;;21.97
64394;BMP280;50712;49.506;10.400;2023-07-20T02:24:08;97836.25;;;21.96
64394;BMP280;50712;49.506;10.400;2023-07-20T02:24:38;97843.03;;;21.95
64394;BMP280;50712;49.506;10.400;2023-07-20T02:25:08;97837.81;;;21.91
64394;BMP280;50712;49.506;10.400;2023-07-20T02:25:39;97837.06;;;21.91
64394;BMP280;50712;49.506;10.400;2023-07-20T02:26:09;97848.16;;;21.91
64394;BMP280;50712;49.506;10.400;2023-07-20T02:26:39;97843.16;;;21.89
64394;BMP280;50712;49.506;10.400;2023-07-20T02:27:10;97847.19;;;21.88
64394;BMP280;50712;49.506;10.400;2023-07-20T02:27:40;97855.34;;;21.86
64394;BMP280;50712;49.506;10.400;2023-07-20T02:28:13;97849.53;;;21.84
64394;BMP280;50712;49.506;10.400;2023-07-20T02:28:44;97844.53;;;21.83
64394;BMP280;50712;49.506;10.400;2023-07-20T02:29:16;97848.56;;;21.81
64394;BMP280;50712;49.506;10.400;2023-07-20T02:29:46;97848.34;;;21.79
64394;BMP280;50712;49.506;10.400;2023-07-20T02:30:17;97849.66;;;21.78
64394;BMP280;50712;49.506;10.400;2023-07-20T02:30:48;97849.41;;;21.76
64394;BMP280;50712;49.506;10.400;2023-07-20T02:31:19;97849.41;;;21.76
64394;BMP280;50712;49.506;10.400;2023-07-20T02:31:49;97846.41;;;21.74
64394;BMP280;50712;49.506;10.400;2023-07-20T02:32:20;97848.97;;;21.72
64394;BMP280;50712;49.506;10.400;2023-07-20T02:32:50;97848.22;;;21.72
64394;BMP280;50712;49.506;10.400;2023-07-20T02:33:20;97844.69;;;21.71
64394;BMP280;50712;49.506;10.400;2023-07-20T02:33:51;97850.22;;;21.71
64394;BMP280;50712;49.506;10.400;2023-07-20T02:34:22;97850.78;;;21.70
64394;BMP280;50712;49.506;10.400;2023-07-20T02:34:52;97850.03;;;21.69
64394;BMP280;50712;49.506;10.400;2023-07-20T02:35:22;97846.50;;;21.69
64394;BMP280;50712;49.506;10.400;2023-07-20T02:35:53;97851.09;;;21.66
64394;BMP280;50712;49.506;10.400;2023-07-20T02:36:23;97849.78;;;21.67
64394;BMP280;50712;49.506;10.400;2023-07-20T02:36:54;97848.31;;;21.66
64394;BMP280;50712;49.506;10.400;2023-07-20T02:37:27;97848.31;;;21.66
64394;BMP280;50712;49.506;10.400;2023-07-20T02:37:58;97844.78;;;21.66
64394;BMP280;50712;49.506;10.400;2023-07-20T02:38:28;97851.59;;;21.65
64394;BMP280;50712;49.506;10.400;2023-07-20T02:38:58;97852.34;;;21.65
64394;BMP280;50712;49.506;10.400;2023-07-20T02:39:29;97850.84;;;21.64
64394;BMP280;50712;49.506;10.400;2023-07-20T02:40:00;97846.59;;;21.63
64394;BMP280;50712;49.506;10.400;2023-07-20T02:40:31;97852.91;;;21.64
64394;BMP280;50712;49.506;10.400;2023-07-20T02:41:01;97854.91;;;21.63
64394;BMP280;50712;49.506;10.400;2023-07-20T02:41:32;97848.63;;;21.63
64394;BMP280;50712;49.506;10.400;2023-07-20T02:42:03;97848.63;;;21.63
64394;BMP280;50712;49.506;10.400;2023-07-20T02:42:34;97846.38;;;21.61
64394;BMP280;50712;49.506;10.400;2023-07-20T02:43:05;97846.38;;;21.61
64394;BMP280;50712;49.506;10.400;2023-07-20T02:43:35;97851.91;;;21.61
64394;BMP280;50712;49.506;10.400;2023-07-20T02:44:07;97853.94;;;21.61
64394;BMP280;50712;49.506;10.400;2023-07-20T02:44:38;97848.38;;;21.61
64394;BMP280;50712;49.506;10.400;2023-07-20T02:45:08;97853.19;;;21.60
64394;BMP280;50712;49.506;10.400;2023-07-20T02:45:43;97850.44;;;21.60
64394;BMP280;50712;49.506;10.400;2023-07-20T02:46:13;97846.13;;;21.59
64394;BMP280;50712;49.506;10.400;2023-07-20T02:46:44;97851.69;;;21.59
64394;BMP280;50712;49.506;10.400;2023-07-20T02:47:14;97853.72;;;21.59
64394;BMP280;50712;49.506;10.400;2023-07-20T02:47:44;97855.75;;;21.58
64394;BMP280;50712;49.506;10.400;2023-07-20T02:48:15;97850.19;;;21.58
64394;BMP280;50712;49.506;10.400;2023-07-20T02:48:45;97857.03;;;21.57
64394;BMP280;50712;49.506;10.400;2023-07-20T02:49:16;97851.47;;;21.57
64394;BMP280;50712;49.506;10.400;2023-07-20T02:49:46;97857.75;;;21.58
64394;BMP280;50712;49.506;10.400;2023-07-20T02:50:17;97857.75;;;21.58
64394;BMP280;50712;49.506;10.400;2023-07-20T02:50:48;97857.03;;;21.57
64394;BMP280;50712;49.506;10.400;2023-07-20T02:51:18;97856.28;;;21.57
64394;BMP280;50712;49.506;10.400;2023-07-20T02:51:48;97854.25;;;21.57
64394;BMP280;50712;49.506;10.400;2023-07-20T02:52:19;97859.06;;;21.57
64394;BMP280;50712;49.506;10.400;2023-07-20T02:52:49;97856.28;;;21.57
64394;BMP280;50712;49.506;10.400;2023-07-20T02:53:20;97855.53;;;21.56
64394;BMP280;50712;49.506;10.400;2023-07-20T02:53:50;97860.31;;;21.56
64394;BMP280;50712;49.506;10.400;2023-07-20T02:54:20;97855.53;;;21.56
64394;BMP280;50712;49.506;10.400;2023-07-20T02:54:51;97860.31;;;21.56
64394;BMP280;50712;49.506;10.400;2023-07-20T02:55:22;97854.75;;;21.56
64394;BMP280;50712;49.506;10.400;2023-07-20T02:55:52;97864.59;;;21.57
64394;BMP280;50712;49.506;10.400;2023-07-20T02:56:22;97862.31;;;21.55
64394;BMP280;50712;49.506;10.400;2023-07-20T02:56:53;97863.09;;;21.56
64394;BMP280;50712;49.506;10.400;2023-07-20T02:57:23;97863.09;;;21.56
64394;BMP280;50712;49.506;10.400;2023-07-20T02:57:53;97863.09;;;21.56
64394;BMP280;50712;49.506;10.400;2023-07-20T02:58:24;97862.31;;;21.55
64394;BMP280;50712;49.506;10.400;2023-07-20T02:58:54;97861.59;;;21.55
64394;BMP280;50712;49.506;10.400;2023-07-20T02:59:25;97869.91;;;21.55
64394;BMP280;50712;49.506;10.400;2023-07-20T02:59:55;97869.91;;;21.55
64394;BMP280;50712;49.506;10.400;2023-07-20T03:00:25;97878.22;;;21.55
64394;BMP280;50712;49.506;10.400;2023-07-20T03:00:56;97872.69;;;21.55
64394;BMP280;50712;49.506;10.400;2023-07-20T03:01:26;97862.13;;;21.53
64394;BMP280;50712;49.506;10.400;2023-07-20T03:01:59;97862.88;;;21.54
64394;BMP280;50712;49.506;10.400;2023-07-20T03:02:29;97872.47;;;21.53
64394;BMP280;50712;49.506;10.400;2023-07-20T03:03:00;97870.44;;;21.53
64394;BMP280;50712;49.506;10.400;2023-07-20T03:03:30;97862.63;;;21.52
64394;BMP280;50712;49.506;10.400;2023-07-20T03:04:01;97870.19;;;21.51
64394;BMP280;50712;49.506;10.400;2023-07-20T03:04:32;97863.19;;;21.50
64394;BMP280;50712;49.506;10.400;2023-07-20T03:05:02;97868.94;;;21.52
64394;BMP280;50712;49.506;10.400;2023-07-20T03:05:36;97867.41;;;21.51
64394;BMP280;50712;49.506;10.400;2023-07-20T03:06:09;97868.16;;;21.52
64394;BMP280;50712;49.506;10.400;2023-07-20T03:06:39;97869.50;;;21.51